Monday, June 25, 2018, 12:17 AM EDT
Back to Local

KMHT, Manchester Airport

Location: Manchester, NH, United States Lat: 42.933
Local Time: 12:17 AM EDT ( 4:17 GMT) Lon: -71.433
Time Zone: US/Eastern Elev: 232 ft

Show me the last for .
Show Decoded

2018-06-24 23:53 METAR KMHT 250353Z 03006KT 3SM RA BR SCT007 OVC044 20/19 A2978 RMK AO2 SLP093
                 P0017 T02000189 $ =
2018-06-24 22:53 METAR KMHT 250253Z 02005KT 3SM -RA BR FEW006 SCT070 OVC110 21/19 A2978 RMK AO2
                 TWR VIS 5 SLP093 P0008 60011 T02060194 58004 $ =
2018-06-24 22:18 METAR KMHT 250218Z 05005KT 6SM -RA BR FEW006 SCT025 OVC030 21/19 A2979 RMK AO2
                 P0004 T02110194 $ =
2018-06-24 21:53 METAR KMHT 250153Z 00000KT 6SM RA BR BKN006 BKN023 OVC040 21/20 A2980 RMK AO2
                 RAE07B47 SLP101 P0002 T02110200 $ =
2018-06-24 21:27 METAR KMHT 250127Z 06003KT 8SM BKN005 BKN023 OVC038 21/20 A2979 RMK AO2 RAE07
                 P0000 T02110200 $ =
2018-06-24 21:12 METAR KMHT 250112Z 01003KT 8SM SCT005 BKN023 OVC035 22/20 A2978 RMK AO2 RAE07
                 P0000 T02170200 $ =
2018-06-24 20:53 METAR KMHT 250053Z 03005KT 7SM -RA BKN005 BKN010 OVC035 22/20 A2978 RMK AO2
                 RAB12 SLP094 P0001 T02170200 $ =
2018-06-24 19:53 METAR KMHT 242353Z 00000KT 10SM BKN006 BKN042 OVC110 22/20 A2979 RMK AO2
                 RAE03B43E53 SLP099 P0000 60071 T02170200 10272 20150 53013 $ =
2018-06-24 19:41 METAR KMHT 242341Z VRB03KT 10SM BKN007 BKN047 OVC110 22/20 A2978 RMK AO2 RAE03
                 P0000 T02170200 $ =
2018-06-24 18:53 METAR KMHT 242253Z 10004KT 8SM -RA FEW006 BKN070 OVC120 22/20 A2977 RMK AO2
                 SLP090 P0004 T02170200 $ =
2018-06-24 18:02 METAR KMHT 242202Z 04003KT 4SM R35/5000VP6000FT -RA BR SCT020 BKN030 OVC050
                 21/20 A2977 RMK AO2 P0002 T02110200 $ =
2018-06-24 17:53 METAR KMHT 242153Z 03003KT 1 1/2SM R35/5000VP6000FT RA BR BKN018 BKN040 OVC060
                 21/20 A2977 RMK AO2 TWR VIS 2 RAB02 SLP093 P0067 T02110200 $ =
2018-06-24 17:21 METAR KMHT 242121Z 34011KT 1 1/4SM R35/3500VP6000FT +RA BR BKN025 OVC040 22/21
                 A2977 RMK AO2 TWR VIS 2 RAB02 P0010 T02170206 $ =
2018-06-24 17:15 METAR KMHT 242115Z 34010KT 2SM -RA BKN025 OVC040 24/19 A2977 RMK AO2 RAB02 P0001
                 T02390194 $ =
2018-06-24 16:53 METAR KMHT 242053Z 08005KT 8SM BKN040 BKN070 OVC120 27/18 A2975 RMK AO2 SLP084
                 T02670183 56005 $ =
2018-06-24 15:53 METAR KMHT 241953Z 00000KT 10SM FEW033 BKN070 BKN090 26/18 A2975 RMK AO2 SLP085
                 T02610178 $ =
2018-06-24 14:53 METAR KMHT 241853Z VRB03KT 10SM FEW025 BKN035 BKN130 BKN250 23/17 A2976 RMK AO2
                 SLP089 T02330172 $ =
2018-06-24 14:16 METAR KMHT 241816Z 22004KT 10SM FEW025 SCT045 BKN250 26/18 A2976 RMK AO2
                 T02610178 $ =
2018-06-24 13:53 METAR KMHT 241753Z 05003KT 10SM BKN025 BKN045 BKN250 22/18 A2977 RMK AO2 SLP090
                 T02170178 10244 20156 58013 =
2018-06-24 12:53 METAR KMHT 241653Z 17005KT 10SM BKN024 BKN110 24/17 A2978 RMK AO2 SLP096
                 T02390167 =
2018-06-24 11:53 METAR KMHT 241553Z 21004KT 10SM BKN030 BKN110 23/16 A2979 RMK AO2 SLP100
                 T02280161 =
2018-06-24 10:53 METAR KMHT 241453Z 20007KT 10SM SCT018 OVC024 21/16 A2980 RMK AO2 SLP103
                 T02060156 51003 =
2018-06-24 09:53 METAR KMHT 241353Z 18004KT 10SM BKN011 BKN018 18/14 A2980 RMK AO2 SLP104
                 T01780144 =
2018-06-24 09:41 METAR KMHT 241341Z 20003KT 10SM BKN011 OVC017 18/14 A2980 RMK AO2 T01780139 =
2018-06-24 08:53 METAR KMHT 241253Z 00000KT 10SM OVC008 17/13 A2980 RMK AO2 SLP104 T01670133 =
2018-06-24 07:53 METAR KMHT 241153Z 17003KT 10SM OVC008 16/13 A2979 RMK AO2 SLP102 70017
                 T01560128 10156 20139 51007 =
2018-06-24 07:10 METAR KMHT 241110Z 16003KT 10SM OVC009 14/12 A2979 RMK AO2 T01440122 =
2018-06-24 06:53 METAR KMHT 241053Z 10003KT 10SM OVC010 14/12 A2978 RMK AO2 SLP097 T01440122 =
2018-06-24 05:53 METAR KMHT 240953Z 18003KT 10SM OVC011 14/12 A2979 RMK AO2 SLP100 T01390122 =
2018-06-24 04:53 METAR KMHT 240853Z 20004KT 10SM OVC014 14/12 A2978 RMK AO2 SLP095 T01390117
                 58010 =
2018-06-24 03:53 METAR KMHT 240753Z 00000KT 10SM OVC017 14/12 A2979 RMK AO2 SLP099 T01390117 =
2018-06-24 03:28 METAR KMHT 240728Z 29003KT 10SM BKN018 14/12 A2979 RMK AO2 T01390117 =
2018-06-24 02:53 METAR KMHT 240653Z 00000KT 10SM SCT019 BKN031 BKN090 14/12 A2979 RMK AO2 SLP101
                 T01390117 =
2018-06-24 01:53 METAR KMHT 240553Z 00000KT 10SM BKN017 OVC070 14/12 A2980 RMK AO2 SLP105 60001
                 T01440117 10150 20139 58014 =
2018-06-24 00:53 METAR KMHT 240453Z 31003KT 10SM BKN019 OVC027 14/12 A2982 RMK AO2 SLP111
                 T01440117 401890139 =

Support USWX by starting your Amazon purchase here.